createdAt,value
2023-04-09T00:00:16.805Z,98233.13
2023-04-09T00:02:43.440Z,98226.53
2023-04-09T00:05:10.365Z,98217.25
2023-04-09T00:07:36.906Z,98223.81
2023-04-09T00:10:03.567Z,98219.13
2023-04-09T00:12:30.576Z,98224.13
2023-04-09T00:14:57.818Z,98217.59
2023-04-09T00:17:24.611Z,98223.72
2023-04-09T00:19:51.407Z,98219.47
2023-04-09T00:22:18.069Z,98217.56
2023-04-09T00:24:44.702Z,98221.41
2023-04-09T00:27:11.336Z,98219.91
2023-04-09T00:29:38.019Z,98218.34
2023-04-09T00:32:04.831Z,98210.19
2023-04-09T00:34:31.480Z,98217.56
2023-04-09T00:36:58.097Z,98212.41
2023-04-09T00:39:24.680Z,98208.91
2023-04-09T00:41:57.579Z,98210.88
2023-04-09T00:44:24.111Z,98209.69
2023-04-09T00:46:50.799Z,98204.63
2023-04-09T00:49:17.668Z,98205.81
2023-04-09T00:51:45.530Z,98203.50
2023-04-09T00:54:12.634Z,98210.47
2023-04-09T00:56:39.240Z,98202.72
2023-04-09T00:59:05.877Z,98212.03
2023-04-09T01:01:32.746Z,98205.03
2023-04-09T01:03:59.580Z,98204.53
2023-04-09T01:06:51.262Z,98205.75
2023-04-09T01:09:20.832Z,98204.09
2023-04-09T01:12:15.243Z,98202.19
2023-04-09T01:14:41.813Z,98222.63
2023-04-09T01:17:27.607Z,98221.72
2023-04-09T01:20:09.329Z,98214.84
2023-04-09T01:22:56.288Z,98214.78
2023-04-09T01:25:37.588Z,98210.03
2023-04-09T01:28:19.216Z,98213.78
2023-04-09T01:30:49.944Z,98207.69
2023-04-09T01:33:19.075Z,98209.13
2023-04-09T01:35:50.583Z,98207.19
2023-04-09T01:38:19.817Z,98206.38
2023-04-09T01:40:46.947Z,98216.44
2023-04-09T01:43:14.127Z,98217.22
2023-04-09T01:45:41.835Z,98210.22
2023-04-09T01:48:09.424Z,98207.81
2023-04-09T01:50:36.408Z,98215.16
2023-04-09T01:53:03.864Z,98211.38
2023-04-09T01:55:30.437Z,98207.09
2023-04-09T01:57:57.086Z,98211.38
2023-04-09T02:00:27.111Z,98211.38
2023-04-09T02:03:13.981Z,98209.81
2023-04-09T02:05:46.635Z,98219.09
2023-04-09T02:08:19.273Z,98219.81
2023-04-09T02:10:55.594Z,98223.69
2023-04-09T02:13:23.577Z,98224.53
2023-04-09T02:15:51.352Z,98220.22
2023-04-09T02:18:31.223Z,98231.53
2023-04-09T02:20:59.210Z,98219.09
2023-04-09T02:23:27.372Z,98226.03
2023-04-09T02:25:54.470Z,98220.53
2023-04-09T02:28:21.083Z,98221.38
2023-04-09T02:30:47.605Z,98214.22
2023-04-09T02:33:14.307Z,98211.88
2023-04-09T02:35:40.919Z,98216.69
2023-04-09T02:38:13.820Z,98218.19
2023-04-09T02:40:41.576Z,98208.72
2023-04-09T02:43:09.292Z,98219.28
2023-04-09T02:45:35.959Z,98209.16
2023-04-09T02:50:34.727Z,98196.19
2023-04-09T02:53:01.416Z,98203.72
2023-04-09T02:55:28.040Z,98190.59
2023-04-09T02:57:54.691Z,98196.56
2023-04-09T03:00:21.394Z,98189.38
2023-04-09T03:02:48.076Z,98198.72
2023-04-09T03:05:14.799Z,98198.56
2023-04-09T03:07:41.442Z,98194.41
2023-04-09T03:10:08.340Z,98197.31
2023-04-09T03:12:34.887Z,98203.88
2023-04-09T03:15:01.482Z,98208.78
2023-04-09T03:17:28.164Z,98219.75
2023-04-09T03:19:54.785Z,98218.19
2023-04-09T03:22:21.369Z,98219.69
2023-04-09T03:24:48.200Z,98215.06
2023-04-09T03:27:15.078Z,98217.25
2023-04-09T03:29:41.602Z,98220.25
2023-04-09T03:32:08.095Z,98209.41
2023-04-09T03:34:34.638Z,98214.25
2023-04-09T03:37:01.236Z,98215.81
2023-04-09T03:39:30.990Z,98204.38
2023-04-09T03:41:59.060Z,98207.38
2023-04-09T03:44:26.020Z,98216.47
2023-04-09T03:46:52.970Z,98224.16
2023-04-09T03:49:19.716Z,98224.69
2023-04-09T03:51:46.363Z,98230.91
2023-04-09T03:54:13.235Z,98227.47
2023-04-09T03:56:39.776Z,98228.19
2023-04-09T03:59:06.727Z,98232.75
2023-04-09T04:01:33.386Z,98225.06
2023-04-09T04:04:00.270Z,98231.00
2023-04-09T04:06:27.461Z,98232.56
2023-04-09T04:08:54.410Z,98230.22
2023-04-09T04:11:21.134Z,98233.84
2023-04-09T04:13:47.781Z,98236.91
2023-04-09T04:16:14.393Z,98226.81
2023-04-09T04:18:41.062Z,98235.09
2023-04-09T04:21:16.097Z,98235.09
2023-04-09T04:23:43.182Z,98233.31
2023-04-09T04:26:10.980Z,98232.19
2023-04-09T04:28:38.481Z,98237.06
2023-04-09T04:31:12.227Z,98240.38
2023-04-09T04:33:41.356Z,98229.03
2023-04-09T04:36:09.737Z,98229.47
2023-04-09T04:38:36.681Z,98228.84
2023-04-09T04:41:03.964Z,98233.09
2023-04-09T04:43:30.797Z,98236.25
2023-04-09T04:45:57.439Z,98234.94
2023-04-09T04:48:24.812Z,98236.59
2023-04-09T04:50:58.726Z,98232.69
2023-04-09T04:53:25.676Z,98234.94
2023-04-09T04:55:52.357Z,98239.44
2023-04-09T04:58:19.239Z,98241.13
2023-04-09T05:00:46.415Z,98249.31
2023-04-09T05:03:13.689Z,98248.19
2023-04-09T05:05:40.499Z,98254.47
2023-04-09T05:08:07.106Z,98255.16
2023-04-09T05:10:36.033Z,98256.94
2023-04-09T05:13:02.671Z,98257.81
2023-04-09T05:15:29.985Z,98258.25
2023-04-09T05:17:56.726Z,98256.44
2023-04-09T05:20:23.412Z,98267.25
2023-04-09T05:22:50.037Z,98263.16
2023-04-09T05:25:16.764Z,98268.31
2023-04-09T05:27:43.411Z,98266.75
2023-04-09T05:30:10.525Z,98262.41
2023-04-09T05:32:37.438Z,98276.53
2023-04-09T05:35:04.426Z,98270.44
2023-04-09T05:37:31.038Z,98270.50
2023-04-09T05:39:57.786Z,98263.78
2023-04-09T05:42:24.320Z,98271.66
2023-04-09T05:44:51.159Z,98276.56
2023-04-09T05:47:17.829Z,98274.28
2023-04-09T05:49:44.511Z,98270.50
2023-04-09T05:52:11.129Z,98276.19
2023-04-09T05:54:38.001Z,98264.91
2023-04-09T05:57:04.737Z,98272.06
2023-04-09T05:59:31.539Z,98277.75
2023-04-09T06:01:58.186Z,98276.84
2023-04-09T06:04:25.046Z,98279.09
2023-04-09T06:06:52.002Z,98282.81
2023-04-09T06:09:18.575Z,98283.91
2023-04-09T06:11:45.219Z,98286.00
2023-04-09T06:14:16.479Z,98286.06
2023-04-09T06:16:43.171Z,98283.56
2023-04-09T06:19:09.743Z,98285.53
2023-04-09T06:21:36.415Z,98277.00
2023-04-09T06:24:03.011Z,98277.19
2023-04-09T06:26:29.585Z,98285.91
2023-04-09T06:28:56.119Z,98280.66
2023-04-09T06:31:22.816Z,98280.13
2023-04-09T06:33:49.500Z,98274.28
2023-04-09T06:36:16.148Z,98276.22
2023-04-09T06:38:42.731Z,98275.84
2023-04-09T06:41:09.727Z,98278.31
2023-04-09T06:43:37.583Z,98283.38
2023-04-09T06:46:04.238Z,98291.88
2023-04-09T06:48:31.454Z,98285.81
2023-04-09T06:50:58.025Z,98288.16
2023-04-09T06:53:24.608Z,98284.06
2023-04-09T06:55:51.464Z,98285.66
2023-04-09T06:58:18.057Z,98285.25
2023-04-09T07:00:44.622Z,98292.94
2023-04-09T07:03:11.508Z,98290.41
2023-04-09T07:05:38.200Z,98286.66
2023-04-09T07:08:05.182Z,98289.63
2023-04-09T07:10:31.885Z,98282.50
2023-04-09T07:12:58.553Z,98279.44
2023-04-09T07:15:25.154Z,98273.22
2023-04-09T07:17:51.784Z,98268.19
2023-04-09T07:20:18.534Z,98275.31
2023-04-09T07:22:45.102Z,98276.56
2023-04-09T07:25:12.005Z,98278.91
2023-04-09T07:27:38.584Z,98287.59
2023-04-09T07:30:05.837Z,98272.94
2023-04-09T07:32:32.597Z,98276.09
2023-04-09T07:34:59.704Z,98271.03
2023-04-09T07:37:27.176Z,98261.56
2023-04-09T07:39:53.799Z,98263.63
2023-04-09T07:42:20.528Z,98266.69
2023-04-09T07:44:47.710Z,98274.91
2023-04-09T07:47:14.695Z,98267.16
2023-04-09T07:49:41.558Z,98272.66
2023-04-09T07:52:08.412Z,98264.47
2023-04-09T07:54:35.671Z,98270.69
2023-04-09T07:57:02.842Z,98273.19
2023-04-09T07:59:30.898Z,98279.41
2023-04-09T08:01:57.745Z,98284.03
2023-04-09T08:04:24.755Z,98285.69
2023-04-09T08:06:51.496Z,98301.28
2023-04-09T08:09:18.663Z,98294.31
2023-04-09T08:11:48.757Z,98293.56
2023-04-09T08:14:16.673Z,98298.25
2023-04-09T08:16:45.327Z,98302.56
2023-04-09T08:19:12.631Z,98293.53
2023-04-09T08:21:43.205Z,98298.25
2023-04-09T08:24:11.644Z,98297.09
2023-04-09T08:26:38.921Z,98301.75
2023-04-09T08:29:05.641Z,98292.78
2023-04-09T08:31:32.391Z,98301.78
2023-04-09T08:33:59.047Z,98301.00
2023-04-09T08:36:26.423Z,98302.09
2023-04-09T08:38:56.286Z,98301.34
2023-04-09T08:41:24.955Z,98307.59
2023-04-09T08:46:23.514Z,98293.97
2023-04-09T08:48:52.081Z,98306.84
2023-04-09T08:51:21.884Z,98302.56
2023-04-09T08:53:53.558Z,98299.81
2023-04-09T08:56:22.058Z,98296.69
2023-04-09T08:58:48.718Z,98304.06
2023-04-09T09:01:31.851Z,98295.78
2023-04-09T09:04:09.268Z,98298.41
2023-04-09T09:06:38.424Z,98294.13
2023-04-09T09:09:18.952Z,98293.00
2023-04-09T09:11:48.524Z,98299.13
2023-04-09T09:14:19.533Z,98292.75
2023-04-09T09:17:04.807Z,98291.13
2023-04-09T09:19:36.752Z,98296.22
2023-04-09T09:22:12.731Z,98288.50
2023-04-09T09:24:49.804Z,98294.38
2023-04-09T09:27:37.211Z,98284.22
2023-04-09T09:30:05.832Z,98285.59
2023-04-09T09:32:33.513Z,98285.53
2023-04-09T09:35:03.261Z,98278.47
2023-04-09T09:37:31.278Z,98278.94
2023-04-09T09:39:58.980Z,98274.47
2023-04-09T09:42:27.180Z,98285.06
2023-04-09T09:44:55.363Z,98278.09
2023-04-09T09:47:23.624Z,98279.94
2023-04-09T09:49:51.407Z,98287.41
2023-04-09T09:52:24.920Z,98289.03
2023-04-09T09:54:53.430Z,98285.94
2023-04-09T09:57:23.789Z,98281.56
2023-04-09T10:00:02.422Z,98290.53
2023-04-09T10:02:37.376Z,98278.91
2023-04-09T10:05:06.559Z,98284.41
2023-04-09T10:07:33.210Z,98288.47
2023-04-09T10:10:01.731Z,98283.38
2023-04-09T10:12:28.761Z,98281.94
2023-04-09T10:14:56.684Z,98280.31
2023-04-09T10:17:23.293Z,98288.31
2023-04-09T10:19:59.462Z,98292.06
2023-04-09T10:22:29.657Z,98290.06
2023-04-09T10:24:58.194Z,98276.25
2023-04-09T10:27:27.312Z,98281.16
2023-04-09T10:29:53.989Z,98294.50
2023-04-09T10:32:26.870Z,98277.50
2023-04-09T10:34:57.602Z,98283.91
2023-04-09T10:37:28.208Z,98284.69
2023-04-09T10:39:54.924Z,98282.41
2023-04-09T10:42:41.223Z,98278.06
2023-04-09T10:45:10.092Z,98273.56
2023-04-09T10:47:39.230Z,98275.22
2023-04-09T10:50:17.080Z,98277.91
2023-04-09T10:52:44.624Z,98279.97
2023-04-09T10:55:31.415Z,98277.63
2023-04-09T10:57:58.646Z,98277.44
2023-04-09T11:00:25.557Z,98273.09
2023-04-09T11:03:08.045Z,98272.81
2023-04-09T11:05:39.439Z,98265.59
2023-04-09T11:08:14.346Z,98271.47
2023-04-09T11:10:44.198Z,98269.25
2023-04-09T11:13:18.581Z,98270.16
2023-04-09T11:15:46.160Z,98262.09
2023-04-09T11:18:20.845Z,98258.28
2023-04-09T11:20:47.689Z,98260.88
2023-04-09T11:23:17.911Z,98261.94
2023-04-09T11:25:49.399Z,98261.44
2023-04-09T11:28:16.110Z,98262.28
2023-04-09T11:30:43.848Z,98257.09
2023-04-09T11:33:10.751Z,98263.13
2023-04-09T11:35:37.564Z,98252.00
2023-04-09T11:38:11.927Z,98252.81
2023-04-09T11:40:48.098Z,98256.72
2023-04-09T11:43:18.973Z,98257.09
2023-04-09T11:45:48.668Z,98252.19
2023-04-09T11:48:18.521Z,98253.28
2023-04-09T11:50:45.910Z,98243.34
2023-04-09T11:53:22.910Z,98246.47
2023-04-09T11:55:53.740Z,98246.22
2023-04-09T11:58:26.453Z,98247.69
2023-04-09T12:00:55.150Z,98252.91
2023-04-09T12:03:29.926Z,98258.28
2023-04-09T12:05:56.828Z,98245.84
2023-04-09T12:08:25.020Z,98244.91
2023-04-09T12:10:53.817Z,98251.41
2023-04-09T12:13:21.348Z,98248.28
2023-04-09T12:15:49.962Z,98246.69
2023-04-09T12:18:16.792Z,98246.97
2023-04-09T12:20:44.649Z,98250.84
2023-04-09T12:23:12.782Z,98250.97
2023-04-09T12:25:41.537Z,98257.91
2023-04-09T12:28:09.786Z,98258.88
2023-04-09T12:30:36.642Z,98255.78
2023-04-09T12:33:04.538Z,98246.28
2023-04-09T12:35:32.035Z,98242.06
2023-04-09T12:37:59.570Z,98245.09
2023-04-09T12:40:26.772Z,98240.97
2023-04-09T12:42:54.156Z,98241.25
2023-04-09T12:45:21.257Z,98243.38
2023-04-09T12:47:48.392Z,98241.03
2023-04-09T12:50:16.387Z,98226.69
2023-04-09T12:52:43.578Z,98230.78
2023-04-09T12:55:10.827Z,98241.72
2023-04-09T12:57:38.928Z,98226.31
2023-04-09T13:00:08.510Z,98239.16
2023-04-09T13:02:36.091Z,98226.47
2023-04-09T13:05:05.668Z,98231.69
2023-04-09T13:07:32.252Z,98229.88
2023-04-09T13:09:58.963Z,98226.44
2023-04-09T13:12:25.967Z,98224.06
2023-04-09T13:14:54.748Z,98227.53
2023-04-09T13:17:22.108Z,98223.00
2023-04-09T13:19:49.997Z,98218.19
2023-04-09T13:22:16.950Z,98219.50
2023-04-09T13:24:43.621Z,98226.66
2023-04-09T13:27:11.431Z,98217.25
2023-04-09T13:29:38.213Z,98212.03
2023-04-09T13:32:07.741Z,98206.84
2023-04-09T13:34:35.603Z,98221.31
2023-04-09T13:37:03.617Z,98199.47
2023-04-09T13:39:30.592Z,98193.59
2023-04-09T13:41:57.369Z,98205.28
2023-04-09T13:44:25.390Z,98208.06
2023-04-09T13:46:54.196Z,98209.25
2023-04-09T13:49:21.252Z,98205.91
2023-04-09T13:51:49.416Z,98204.34
2023-04-09T13:54:16.395Z,98202.44
2023-04-09T13:56:44.638Z,98200.75
2023-04-09T13:59:11.706Z,98199.94
2023-04-09T14:01:38.401Z,98201.50
2023-04-09T14:04:05.251Z,98193.66
2023-04-09T14:06:32.132Z,98192.72
2023-04-09T14:08:58.726Z,98200.59
2023-04-09T14:11:25.516Z,98192.06
2023-04-09T14:13:52.398Z,98199.66
2023-04-09T14:16:19.510Z,98188.69
2023-04-09T14:18:46.457Z,98186.25
2023-04-09T14:21:13.110Z,98194.75
2023-04-09T14:23:40.183Z,98189.97
2023-04-09T14:26:07.141Z,98179.50
2023-04-09T14:28:33.790Z,98189.38
2023-04-09T14:31:00.748Z,98185.31
2023-04-09T14:33:27.598Z,98182.63
2023-04-09T14:35:54.375Z,98182.09
2023-04-09T14:38:21.065Z,98185.94
2023-04-09T14:40:47.657Z,98183.91
2023-04-09T14:43:14.273Z,98177.94
2023-04-09T14:45:41.224Z,98174.44
2023-04-09T14:48:08.680Z,98174.25
2023-04-09T14:50:36.922Z,98172.13
2023-04-09T14:53:04.280Z,98180.13
2023-04-09T14:55:31.049Z,98168.41
2023-04-09T14:57:59.229Z,98168.00
2023-04-09T15:00:25.898Z,98168.09
2023-04-09T15:02:52.828Z,98165.84
2023-04-09T15:05:19.626Z,98164.97
2023-04-09T15:07:46.368Z,98168.69
2023-04-09T15:10:13.078Z,98169.59
2023-04-09T15:12:39.844Z,98167.88
2023-04-09T15:15:08.391Z,98172.91
2023-04-09T15:17:35.220Z,98163.00
2023-04-09T15:20:01.996Z,98166.03
2023-04-09T15:22:28.587Z,98170.25
2023-04-09T15:24:55.198Z,98160.25
2023-04-09T15:27:21.791Z,98166.09
2023-04-09T15:29:48.423Z,98164.97
2023-04-09T15:32:15.050Z,98166.75
2023-04-09T15:34:41.682Z,98153.13
2023-04-09T15:37:08.357Z,98146.91
2023-04-09T15:39:35.273Z,98163.50
2023-04-09T15:42:02.253Z,98157.50
2023-04-09T15:44:29.262Z,98150.31
2023-04-09T15:46:56.220Z,98156.59
2023-04-09T15:49:23.572Z,98151.66
2023-04-09T15:51:50.254Z,98155.31
2023-04-09T15:54:16.918Z,98154.00
2023-04-09T15:56:43.561Z,98152.72
2023-04-09T15:59:10.202Z,98151.88
2023-04-09T16:01:36.946Z,98146.44
2023-04-09T16:04:04.934Z,98146.84
2023-04-09T16:06:31.977Z,98144.78
2023-04-09T16:08:58.752Z,98145.72
2023-04-09T16:11:26.134Z,98152.13
2023-04-09T16:13:52.871Z,98150.81
2023-04-09T16:16:19.720Z,98150.69
2023-04-09T16:18:46.321Z,98155.94
2023-04-09T16:21:12.998Z,98162.50
2023-04-09T16:23:39.961Z,98155.44
2023-04-09T16:26:07.039Z,98159.91
2023-04-09T16:28:33.867Z,98158.72
2023-04-09T16:31:00.575Z,98159.41
2023-04-09T16:33:27.297Z,98152.44
2023-04-09T16:35:53.931Z,98160.75
2023-04-09T16:38:20.589Z,98162.03
2023-04-09T16:40:47.254Z,98172.56
2023-04-09T16:43:13.883Z,98171.03
2023-04-09T16:45:40.554Z,98162.25
2023-04-09T16:48:12.344Z,98160.84
2023-04-09T16:50:40.490Z,98164.22
2023-04-09T16:53:07.824Z,98162.25
2023-04-09T16:55:35.283Z,98161.19
2023-04-09T16:58:01.955Z,98162.75
2023-04-09T17:00:28.688Z,98165.63
2023-04-09T17:02:56.841Z,98166.38
2023-04-09T17:05:23.778Z,98168.53
2023-04-09T17:07:50.605Z,98162.44
2023-04-09T17:10:18.696Z,98164.50
2023-04-09T17:12:45.926Z,98171.63
2023-04-09T17:15:12.514Z,98166.13
2023-04-09T17:17:39.256Z,98170.97
2023-04-09T17:20:06.617Z,98172.00
2023-04-09T17:22:35.177Z,98171.03
2023-04-09T17:25:02.622Z,98174.13
2023-04-09T17:27:29.338Z,98169.38
2023-04-09T17:29:56.167Z,98176.50
2023-04-09T17:32:22.820Z,98175.69
2023-04-09T17:34:49.630Z,98182.00
2023-04-09T17:37:16.457Z,98179.66
2023-04-09T17:39:43.091Z,98175.84
2023-04-09T17:42:11.898Z,98181.78
2023-04-09T17:44:38.796Z,98181.28
2023-04-09T17:47:07.570Z,98184.84
2023-04-09T17:49:34.373Z,98186.03
2023-04-09T17:52:01.342Z,98193.81
2023-04-09T17:54:35.427Z,98192.28
2023-04-09T17:57:04.253Z,98186.78
2023-04-09T17:59:31.326Z,98195.81
2023-04-09T18:01:58.118Z,98197.41
2023-04-09T18:04:25.297Z,98198.56
2023-04-09T18:06:52.659Z,98182.72
2023-04-09T18:09:19.419Z,98183.03
2023-04-09T18:11:46.528Z,98188.56
2023-04-09T18:14:13.261Z,98186.59
2023-04-09T18:16:40.199Z,98199.59
2023-04-09T18:19:07.440Z,98196.88
2023-04-09T18:21:36.585Z,98208.28
2023-04-09T18:24:03.850Z,98212.22
2023-04-09T18:26:30.927Z,98214.63
2023-04-09T18:29:00.165Z,98215.84
2023-04-09T18:31:27.614Z,98213.50
2023-04-09T18:33:54.267Z,98223.66
2023-04-09T18:36:20.784Z,98221.34
2023-04-09T18:38:47.384Z,98224.09
2023-04-09T18:41:21.092Z,98227.19
2023-04-09T18:43:48.451Z,98226.41
2023-04-09T18:46:15.091Z,98232.25
2023-04-09T18:48:43.429Z,98234.16
2023-04-09T18:51:10.797Z,98236.53
2023-04-09T18:53:37.909Z,98226.75
2023-04-09T18:56:04.619Z,98232.91
2023-04-09T18:58:31.416Z,98247.31
2023-04-09T19:00:58.338Z,98239.88
2023-04-09T19:03:25.799Z,98244.91
2023-04-09T19:05:53.740Z,98248.03
2023-04-09T19:08:20.315Z,98250.31
2023-04-09T19:10:47.883Z,98253.00
2023-04-09T19:13:14.554Z,98256.44
2023-04-09T19:15:41.126Z,98257.22
2023-04-09T19:18:07.871Z,98258.72
2023-04-09T19:20:34.399Z,98257.88
2023-04-09T19:23:01.163Z,98262.56
2023-04-09T19:25:28.869Z,98262.53
2023-04-09T19:27:55.447Z,98269.88
2023-04-09T19:30:22.105Z,98276.88
2023-04-09T19:32:48.795Z,98262.41
2023-04-09T19:35:15.627Z,98268.63
2023-04-09T19:37:42.733Z,98267.00
2023-04-09T19:40:09.850Z,98275.53
2023-04-09T19:42:36.646Z,98268.06
2023-04-09T19:45:03.358Z,98269.22
2023-04-09T19:47:30.007Z,98268.41
2023-04-09T19:49:56.667Z,98266.75
2023-04-09T19:52:23.255Z,98274.59
2023-04-09T19:54:55.191Z,98261.28
2023-04-09T19:57:22.643Z,98267.44
2023-04-09T19:59:49.953Z,98278.28
2023-04-09T20:02:16.838Z,98282.09
2023-04-09T20:04:43.600Z,98283.59
2023-04-09T20:07:10.163Z,98278.88
2023-04-09T20:09:41.432Z,98277.31
2023-04-09T20:12:09.647Z,98272.59
2023-04-09T20:14:38.329Z,98267.09
2023-04-09T20:17:06.219Z,98278.25
2023-04-09T20:19:32.819Z,98262.34
2023-04-09T20:22:00.454Z,98273.13
2023-04-09T20:24:28.260Z,98282.00
2023-04-09T20:26:56.413Z,98274.13
2023-04-09T20:29:23.000Z,98272.94
2023-04-09T20:31:49.607Z,98272.88
2023-04-09T20:34:16.282Z,98273.59
2023-04-09T20:36:44.063Z,98273.88
2023-04-09T20:39:11.764Z,98280.06
2023-04-09T20:41:38.508Z,98275.75
2023-04-09T20:44:05.060Z,98277.19
2023-04-09T20:46:31.843Z,98277.84
2023-04-09T20:48:58.326Z,98280.97
2023-04-09T20:51:24.867Z,98284.84
2023-04-09T20:53:51.386Z,98295.53
2023-04-09T20:56:18.597Z,98299.81
2023-04-09T20:58:45.146Z,98299.38
2023-04-09T21:01:11.748Z,98289.19
2023-04-09T21:03:40.234Z,98293.06
2023-04-09T21:06:07.313Z,98290.72
2023-04-09T21:08:34.232Z,98291.75
2023-04-09T21:11:00.918Z,98286.72
2023-04-09T21:13:27.544Z,98292.50
2023-04-09T21:15:54.119Z,98290.06
2023-04-09T21:18:20.687Z,98289.13
2023-04-09T21:20:47.719Z,98298.09
2023-04-09T21:23:14.417Z,98290.25
2023-04-09T21:25:41.590Z,98287.50
2023-04-09T21:28:08.437Z,98289.31
2023-04-09T21:30:35.773Z,98291.63
2023-04-09T21:33:03.797Z,98292.91
2023-04-09T21:35:30.701Z,98296.00
2023-04-09T21:37:57.499Z,98295.94
2023-04-09T21:40:24.532Z,98296.22
2023-04-09T21:42:51.606Z,98295.13
2023-04-09T21:45:18.163Z,98296.59
2023-04-09T21:47:45.568Z,98292.25
2023-04-09T21:50:12.228Z,98296.34
2023-04-09T21:52:38.780Z,98305.44
2023-04-09T21:55:05.867Z,98300.88
2023-04-09T21:57:32.530Z,98306.28
2023-04-09T21:59:59.158Z,98300.59
2023-04-09T22:02:28.147Z,98295.91
2023-04-09T22:04:54.906Z,98299.03
2023-04-09T22:07:21.474Z,98308.03
2023-04-09T22:09:47.994Z,98311.09
2023-04-09T22:12:14.515Z,98300.97
2023-04-09T22:14:41.961Z,98301.03
2023-04-09T22:17:08.957Z,98296.34
2023-04-09T22:19:35.548Z,98299.69
2023-04-09T22:22:02.282Z,98302.38
2023-04-09T22:24:30.424Z,98301.25
2023-04-09T22:26:59.235Z,98305.59
2023-04-09T22:29:29.341Z,98302.19
2023-04-09T22:31:56.651Z,98301.59
2023-04-09T22:34:23.195Z,98303.47
2023-04-09T22:36:49.737Z,98299.09
2023-04-09T22:39:16.472Z,98294.47
2023-04-09T22:41:43.160Z,98304.00
2023-04-09T22:44:09.772Z,98293.91
2023-04-09T22:46:36.788Z,98306.13
2023-04-09T22:49:05.572Z,98305.97
2023-04-09T22:51:34.953Z,98300.91
2023-04-09T22:54:02.286Z,98309.41
2023-04-09T22:56:30.240Z,98303.47
2023-04-09T22:58:56.785Z,98304.94
2023-04-09T23:01:23.540Z,98297.72
2023-04-09T23:03:50.638Z,98305.50
2023-04-09T23:06:17.393Z,98305.50
2023-04-09T23:08:44.622Z,98310.75
2023-04-09T23:11:11.496Z,98310.84
2023-04-09T23:13:38.896Z,98305.59
2023-04-09T23:16:07.600Z,98306.03
2023-04-09T23:18:35.853Z,98298.38
2023-04-09T23:21:09.898Z,98298.00
2023-04-09T23:23:37.626Z,98303.00
2023-04-09T23:26:04.617Z,98302.75
2023-04-09T23:28:31.660Z,98298.38
2023-04-09T23:30:58.278Z,98295.34
2023-04-09T23:33:24.950Z,98296.63
2023-04-09T23:35:51.704Z,98294.38
2023-04-09T23:38:18.411Z,98297.16
2023-04-09T23:40:47.313Z,98284.13
2023-04-09T23:43:14.134Z,98282.41
2023-04-09T23:45:40.730Z,98287.91
2023-04-09T23:48:08.966Z,98290.59
2023-04-09T23:50:39.173Z,98299.44
2023-04-09T23:53:05.689Z,98290.00
2023-04-09T23:55:33.568Z,98287.56
2023-04-09T23:58:00.124Z,98290.69
